createdAt,value
2023-12-09T00:00:01.169Z,5.10
2023-12-09T00:01:10.981Z,5.06
2023-12-09T00:01:52.230Z,5.05
2023-12-09T00:02:39.005Z,5.13
2023-12-09T00:03:15.200Z,5.05
2023-12-09T00:04:02.148Z,5.07
2023-12-09T00:04:36.207Z,5.16
2023-12-09T00:05:23.009Z,5.17
2023-12-09T00:05:57.286Z,5.18
2023-12-09T00:06:37.096Z,5.12
2023-12-09T00:07:18.111Z,5.17
2023-12-09T00:07:58.013Z,5.16
2023-12-09T00:08:38.142Z,5.21
2023-12-09T00:09:19.039Z,5.17
2023-12-09T00:09:59.527Z,5.21
2023-12-09T00:10:39.978Z,5.17
2023-12-09T00:11:21.665Z,5.19
2023-12-09T00:12:02.051Z,5.24
2023-12-09T00:12:42.163Z,5.22
2023-12-09T00:13:22.043Z,5.23
2023-12-09T00:14:05.416Z,5.17
2023-12-09T00:14:47.003Z,5.13
2023-12-09T00:15:27.135Z,5.27
2023-12-09T00:16:08.003Z,5.23
2023-12-09T00:16:50.526Z,5.19
2023-12-09T00:17:31.016Z,5.26
2023-12-09T00:18:11.246Z,5.19
2023-12-09T00:18:52.154Z,5.25
2023-12-09T00:19:32.265Z,5.29
2023-12-09T00:20:14.020Z,5.31
2023-12-09T00:20:54.132Z,5.29
2023-12-09T00:21:35.038Z,5.27
2023-12-09T00:22:15.181Z,5.27
2023-12-09T00:22:56.996Z,5.26
2023-12-09T00:23:47.151Z,5.29
2023-12-09T00:24:29.061Z,5.29
2023-12-09T00:25:09.072Z,5.26
2023-12-09T00:25:49.980Z,5.25
2023-12-09T00:26:31.739Z,5.28
2023-12-09T00:27:13.039Z,5.29
2023-12-09T00:27:53.260Z,5.35
2023-12-09T00:28:33.995Z,5.27
2023-12-09T00:29:14.147Z,5.35
2023-12-09T00:29:54.082Z,5.37
2023-12-09T00:30:36.157Z,5.34
2023-12-09T00:31:16.964Z,5.26
2023-12-09T00:31:59.114Z,5.39
2023-12-09T00:32:38.996Z,5.29
2023-12-09T00:33:19.885Z,5.29
2023-12-09T00:34:01.148Z,5.30
2023-12-09T00:34:41.042Z,5.33
2023-12-09T00:35:21.986Z,5.37
2023-12-09T00:36:02.117Z,5.26
2023-12-09T00:36:42.950Z,5.24
2023-12-09T00:37:23.112Z,5.30
2023-12-09T00:38:02.950Z,5.31
2023-12-09T00:38:43.056Z,5.22
2023-12-09T00:39:24.049Z,5.19
2023-12-09T00:40:04.120Z,5.23
2023-12-09T00:40:43.958Z,5.20
2023-12-09T00:41:37.964Z,5.05
2023-12-09T00:42:32.034Z,5.04
2023-12-09T00:43:25.972Z,5.18
2023-12-09T00:44:19.946Z,5.24
2023-12-09T00:44:59.996Z,5.16
2023-12-09T00:45:40.094Z,5.24
2023-12-09T00:46:19.973Z,5.24
2023-12-09T00:47:00.066Z,5.13
2023-12-09T00:47:40.023Z,5.23
2023-12-09T00:48:20.168Z,5.23
2023-12-09T00:49:00.058Z,5.28
2023-12-09T00:49:40.167Z,5.25
2023-12-09T00:50:19.957Z,5.25
2023-12-09T00:51:01.177Z,5.28
2023-12-09T00:51:40.933Z,5.30
2023-12-09T00:52:21.045Z,5.35
2023-12-09T00:53:00.946Z,5.27
2023-12-09T00:53:41.101Z,5.37
2023-12-09T00:54:21.953Z,5.28
2023-12-09T00:55:02.141Z,5.35
2023-12-09T00:55:41.973Z,5.32
2023-12-09T00:56:33.514Z,5.31
2023-12-09T00:57:15.039Z,5.30
2023-12-09T00:57:55.024Z,5.29
2023-12-09T00:58:35.910Z,5.28
2023-12-09T00:59:16.041Z,5.35
2023-12-09T00:59:56.965Z,5.35
2023-12-09T01:00:37.109Z,5.17
2023-12-09T01:01:17.008Z,5.33
2023-12-09T01:01:57.034Z,5.36
2023-12-09T01:03:00.015Z,5.30
2023-12-09T01:03:54.079Z,5.40
2023-12-09T01:04:47.997Z,5.39
2023-12-09T01:05:41.945Z,5.43
2023-12-09T01:06:36.982Z,5.40
2023-12-09T01:07:30.946Z,5.42
2023-12-09T01:08:24.968Z,5.36
2023-12-09T01:09:18.997Z,5.49
2023-12-09T01:10:13.931Z,5.53
2023-12-09T01:11:08.910Z,5.39
2023-12-09T01:11:55.984Z,5.37
2023-12-09T01:12:31.462Z,5.38
2023-12-09T01:13:18.964Z,5.49
2023-12-09T01:13:53.070Z,5.39
2023-12-09T01:14:39.929Z,5.50
2023-12-09T01:15:14.158Z,5.50
2023-12-09T01:16:01.930Z,5.51
2023-12-09T01:16:36.025Z,5.47
2023-12-09T01:17:16.946Z,5.46
2023-12-09T01:17:57.296Z,5.40
2023-12-09T01:18:36.990Z,5.52
2023-12-09T01:19:17.089Z,5.33
2023-12-09T01:19:58.008Z,5.44
2023-12-09T01:20:38.420Z,5.50
2023-12-09T01:21:19.059Z,5.44
2023-12-09T01:22:00.209Z,5.47
2023-12-09T01:22:39.986Z,5.46
2023-12-09T01:23:20.002Z,5.47
2023-12-09T01:24:00.921Z,5.35
2023-12-09T01:24:41.010Z,5.32
2023-12-09T01:25:22.002Z,5.37
2023-12-09T01:26:02.051Z,5.40
2023-12-09T01:26:42.939Z,5.44
2023-12-09T01:27:23.110Z,5.37
2023-12-09T01:28:03.948Z,5.41
2023-12-09T01:28:45.371Z,5.39
2023-12-09T01:29:26.905Z,5.40
2023-12-09T01:30:07.074Z,5.34
2023-12-09T01:30:46.879Z,5.39
2023-12-09T01:31:27.032Z,5.40
2023-12-09T01:32:07.927Z,5.31
2023-12-09T01:32:49.097Z,5.36
2023-12-09T01:33:29.058Z,5.33
2023-12-09T01:34:09.089Z,5.25
2023-12-09T01:34:49.925Z,5.31
2023-12-09T01:35:30.065Z,5.39
2023-12-09T01:36:10.940Z,5.27
2023-12-09T01:36:51.031Z,5.31
2023-12-09T01:37:31.896Z,5.39
2023-12-09T01:38:13.014Z,5.16
2023-12-09T01:38:53.026Z,5.24
2023-12-09T01:39:34.130Z,5.29
2023-12-09T01:40:14.913Z,5.28
2023-12-09T01:41:02.021Z,5.18
2023-12-09T01:41:44.900Z,5.17
2023-12-09T01:42:25.332Z,5.22
2023-12-09T01:43:05.914Z,5.13
2023-12-09T01:43:45.996Z,5.23
2023-12-09T01:44:26.922Z,5.27
2023-12-09T01:45:07.079Z,5.30
2023-12-09T01:45:46.924Z,5.24
2023-12-09T01:46:28.033Z,5.33
2023-12-09T01:47:08.887Z,5.26
2023-12-09T01:47:50.206Z,5.26
2023-12-09T01:48:31.984Z,5.26
2023-12-09T01:49:15.171Z,5.30
2023-12-09T01:49:57.074Z,5.36
2023-12-09T01:50:38.155Z,5.32
2023-12-09T01:51:18.926Z,5.34
2023-12-09T01:52:00.042Z,5.28
2023-12-09T01:52:40.890Z,5.23
2023-12-09T01:53:20.964Z,5.24
2023-12-09T01:54:01.902Z,5.32
2023-12-09T01:54:41.979Z,5.33
2023-12-09T01:55:22.893Z,5.27
2023-12-09T01:56:06.100Z,5.27
2023-12-09T01:56:46.898Z,5.28
2023-12-09T01:57:27.007Z,5.17
2023-12-09T01:58:06.882Z,5.27
2023-12-09T01:58:48.049Z,5.28
2023-12-09T01:59:28.886Z,5.29
2023-12-09T02:00:11.036Z,5.38
2023-12-09T02:00:51.964Z,5.39
2023-12-09T02:01:32.955Z,5.40
2023-12-09T02:02:13.890Z,5.43
2023-12-09T02:02:54.056Z,5.43
2023-12-09T02:03:34.999Z,5.48
2023-12-09T02:04:15.096Z,5.47
2023-12-09T02:04:56.886Z,5.46
2023-12-09T02:05:36.966Z,5.40
2023-12-09T02:06:17.918Z,5.52
2023-12-09T02:06:58.030Z,5.52
2023-12-09T02:07:37.856Z,5.48
2023-12-09T02:08:17.970Z,5.55
2023-12-09T02:08:58.923Z,5.49
2023-12-09T02:09:40.678Z,5.56
2023-12-09T02:10:28.884Z,5.58
2023-12-09T02:11:35.893Z,5.55
2023-12-09T02:12:46.863Z,5.67
2023-12-09T02:14:14.917Z,5.64
2023-12-09T02:15:22.870Z,5.61
2023-12-09T02:16:30.879Z,5.51
2023-12-09T02:17:29.924Z,5.58
2023-12-09T02:18:16.152Z,5.56
2023-12-09T02:18:56.922Z,5.51
2023-12-09T02:19:38.218Z,5.59
2023-12-09T02:20:18.876Z,5.64
2023-12-09T02:20:59.015Z,5.51
2023-12-09T02:22:07.870Z,5.62
2023-12-09T02:22:47.877Z,5.60
2023-12-09T02:23:21.949Z,5.57
2023-12-09T02:24:08.888Z,5.46
2023-12-09T02:24:43.020Z,5.52
2023-12-09T02:25:29.863Z,5.48
2023-12-09T02:26:12.961Z,5.39
2023-12-09T02:27:01.890Z,5.44
2023-12-09T02:28:00.870Z,5.36
2023-12-09T02:29:00.850Z,5.25
2023-12-09T02:30:13.874Z,5.15
2023-12-09T02:31:32.887Z,5.14
2023-12-09T02:32:28.999Z,5.10
2023-12-09T02:33:17.107Z,5.07
2023-12-09T02:33:52.103Z,5.09
2023-12-09T02:34:39.910Z,5.06
2023-12-09T02:35:14.963Z,5.13
2023-12-09T02:36:02.875Z,5.14
2023-12-09T02:36:38.043Z,5.16
2023-12-09T02:37:27.871Z,5.14
2023-12-09T02:38:10.949Z,5.26
2023-12-09T02:38:51.925Z,5.23
2023-12-09T02:39:33.056Z,5.15
2023-12-09T02:40:17.861Z,5.09
2023-12-09T02:40:58.935Z,5.09
2023-12-09T02:41:39.825Z,4.98
2023-12-09T02:42:22.013Z,5.01
2023-12-09T02:43:01.849Z,5.11
2023-12-09T02:43:43.013Z,5.14
2023-12-09T02:44:22.923Z,5.15
2023-12-09T02:45:04.181Z,5.11
2023-12-09T02:45:44.830Z,5.16
2023-12-09T02:46:25.921Z,5.19
2023-12-09T02:47:05.823Z,5.20
2023-12-09T02:47:45.926Z,5.16
2023-12-09T02:48:25.932Z,5.11
2023-12-09T02:49:10.049Z,5.09
2023-12-09T02:49:50.976Z,5.13
2023-12-09T02:50:31.963Z,5.11
2023-12-09T02:51:12.853Z,5.11
2023-12-09T02:51:52.960Z,5.05
2023-12-09T02:52:32.843Z,5.13
2023-12-09T02:53:12.933Z,5.13
2023-12-09T02:53:52.867Z,5.10
2023-12-09T02:54:33.945Z,5.01
2023-12-09T02:55:15.839Z,5.01
2023-12-09T02:55:55.991Z,4.90
2023-12-09T02:56:35.854Z,5.05
2023-12-09T02:57:15.983Z,5.10
2023-12-09T02:57:56.821Z,5.19
2023-12-09T02:58:37.953Z,5.16
2023-12-09T02:59:17.816Z,5.12
2023-12-09T02:59:57.956Z,5.00
2023-12-09T03:00:37.879Z,5.16
2023-12-09T03:01:17.963Z,5.15
2023-12-09T03:01:57.831Z,5.16
2023-12-09T03:03:01.003Z,5.19
2023-12-09T03:03:48.907Z,5.20
2023-12-09T03:04:22.933Z,5.20
2023-12-09T03:05:09.856Z,5.25
2023-12-09T03:05:50.943Z,5.23
2023-12-09T03:06:44.802Z,5.27
2023-12-09T03:07:38.804Z,5.11
2023-12-09T03:08:32.775Z,5.11
2023-12-09T03:09:26.847Z,5.12
2023-12-09T03:10:21.823Z,5.14
2023-12-09T03:11:08.861Z,5.12
2023-12-09T03:11:42.913Z,5.12
2023-12-09T03:12:30.018Z,5.17
2023-12-09T03:13:03.954Z,5.21
2023-12-09T03:13:50.798Z,5.19
2023-12-09T03:14:24.975Z,5.13
2023-12-09T03:15:12.878Z,5.07
2023-12-09T03:15:46.934Z,5.09
2023-12-09T03:16:33.832Z,5.00
2023-12-09T03:17:07.904Z,4.93
2023-12-09T03:17:54.900Z,4.95
2023-12-09T03:18:29.021Z,4.89
2023-12-09T03:19:15.877Z,4.91
2023-12-09T03:19:49.987Z,4.96
2023-12-09T03:20:36.778Z,4.96
2023-12-09T03:21:10.967Z,4.91
2023-12-09T03:21:57.822Z,4.94
2023-12-09T03:22:31.927Z,4.90
2023-12-09T03:23:18.835Z,4.97
2023-12-09T03:23:52.944Z,5.04
2023-12-09T03:24:39.801Z,5.10
2023-12-09T03:25:13.971Z,4.97
2023-12-09T03:26:00.800Z,5.04
2023-12-09T03:26:34.879Z,5.06
2023-12-09T03:27:21.817Z,5.05
2023-12-09T03:27:56.634Z,5.15
2023-12-09T03:28:44.804Z,5.13
2023-12-09T03:29:19.044Z,5.11
2023-12-09T03:30:05.841Z,5.13
2023-12-09T03:30:40.022Z,5.15
2023-12-09T03:31:27.779Z,5.18
2023-12-09T03:32:01.903Z,5.21
2023-12-09T03:32:41.815Z,5.16
2023-12-09T03:33:22.025Z,5.19
2023-12-09T03:34:02.867Z,5.20
2023-12-09T03:34:42.886Z,5.02
2023-12-09T03:35:23.803Z,5.12
2023-12-09T03:36:04.049Z,5.16
2023-12-09T03:36:43.770Z,5.20
2023-12-09T03:37:23.902Z,5.22
2023-12-09T03:38:04.786Z,5.10
2023-12-09T03:38:44.869Z,5.21
2023-12-09T03:39:25.922Z,5.16
2023-12-09T03:40:05.909Z,5.19
2023-12-09T03:40:45.756Z,5.12
2023-12-09T03:41:26.352Z,5.21
2023-12-09T03:42:06.946Z,5.21
2023-12-09T03:42:46.894Z,5.20
2023-12-09T03:43:27.841Z,5.15
2023-12-09T03:44:08.883Z,5.26
2023-12-09T03:44:48.797Z,5.29
2023-12-09T03:45:28.923Z,5.12
2023-12-09T03:46:09.789Z,5.16
2023-12-09T03:46:49.852Z,5.22
2023-12-09T03:47:30.813Z,5.30
2023-12-09T03:48:11.972Z,5.31
2023-12-09T03:48:51.966Z,5.26
2023-12-09T03:49:31.966Z,5.24
2023-12-09T03:50:12.768Z,5.29
2023-12-09T03:50:52.989Z,5.21
2023-12-09T03:51:33.831Z,5.28
2023-12-09T03:52:16.548Z,5.09
2023-12-09T03:52:57.771Z,5.19
2023-12-09T03:53:37.844Z,5.26
2023-12-09T03:54:17.800Z,5.28
2023-12-09T03:54:57.867Z,5.20
2023-12-09T03:55:38.788Z,5.14
2023-12-09T03:56:18.932Z,5.16
2023-12-09T03:56:58.817Z,5.21
2023-12-09T03:57:39.006Z,5.18
2023-12-09T03:58:19.754Z,5.01
2023-12-09T03:59:00.330Z,5.27
2023-12-09T03:59:41.789Z,5.21
2023-12-09T04:00:23.731Z,5.32
2023-12-09T04:01:03.863Z,5.30
2023-12-09T04:01:43.856Z,5.39
2023-12-09T04:02:25.952Z,5.40
2023-12-09T04:03:07.160Z,5.35
2023-12-09T04:03:47.841Z,5.33
2023-12-09T04:04:27.928Z,5.38
2023-12-09T04:05:07.802Z,5.33
2023-12-09T04:05:48.946Z,5.23
2023-12-09T04:06:28.813Z,5.26
2023-12-09T04:07:08.922Z,5.27
2023-12-09T04:07:49.767Z,5.28
2023-12-09T04:08:29.852Z,5.25
2023-12-09T04:09:10.775Z,5.34
2023-12-09T04:09:50.928Z,5.32
2023-12-09T04:10:30.777Z,5.33
2023-12-09T04:11:11.852Z,5.35
2023-12-09T04:11:52.757Z,5.37
2023-12-09T04:12:32.875Z,5.32
2023-12-09T04:13:13.719Z,5.31
2023-12-09T04:13:53.819Z,5.36
2023-12-09T04:14:33.746Z,5.38
2023-12-09T04:15:15.969Z,5.45
2023-12-09T04:15:56.795Z,5.42
2023-12-09T04:16:36.879Z,5.49
2023-12-09T04:17:17.729Z,5.38
2023-12-09T04:17:58.039Z,5.52
2023-12-09T04:18:38.790Z,5.48
2023-12-09T04:19:18.974Z,5.52
2023-12-09T04:19:59.804Z,5.55
2023-12-09T04:20:39.877Z,5.55
2023-12-09T04:21:19.808Z,5.55
2023-12-09T04:21:59.850Z,5.59
2023-12-09T04:22:39.774Z,5.59
2023-12-09T04:23:22.436Z,5.63
2023-12-09T04:24:03.731Z,5.64
2023-12-09T04:24:44.140Z,5.66
2023-12-09T04:25:24.728Z,5.55
2023-12-09T04:26:05.917Z,5.65
2023-12-09T04:26:46.765Z,5.67
2023-12-09T04:27:26.884Z,5.65
2023-12-09T04:28:07.715Z,5.66
2023-12-09T04:28:48.194Z,5.62
2023-12-09T04:29:28.739Z,5.69
2023-12-09T04:30:10.451Z,5.65
2023-12-09T04:30:50.728Z,5.48
2023-12-09T04:31:30.857Z,5.53
2023-12-09T04:32:11.718Z,5.62
2023-12-09T04:32:51.880Z,5.58
2023-12-09T04:33:32.748Z,5.64
2023-12-09T04:34:12.908Z,5.65
2023-12-09T04:34:53.737Z,5.70
2023-12-09T04:35:33.842Z,5.74
2023-12-09T04:36:14.815Z,5.54
2023-12-09T04:36:54.868Z,5.49
2023-12-09T04:37:34.755Z,5.64
2023-12-09T04:38:15.101Z,5.60
2023-12-09T04:38:54.803Z,5.72
2023-12-09T04:39:34.843Z,5.65
2023-12-09T04:40:18.920Z,5.72
2023-12-09T04:40:59.865Z,5.71
2023-12-09T04:41:39.722Z,5.76
2023-12-09T04:42:19.851Z,5.75
2023-12-09T04:42:59.760Z,5.78
2023-12-09T04:43:39.991Z,5.77
2023-12-09T04:44:20.700Z,5.70
2023-12-09T04:45:00.829Z,5.88
2023-12-09T04:45:40.716Z,5.83
2023-12-09T04:46:20.836Z,5.77
2023-12-09T04:47:00.717Z,5.81
2023-12-09T04:47:41.959Z,5.69
2023-12-09T04:48:22.922Z,5.73
2023-12-09T04:49:04.101Z,5.66
2023-12-09T04:49:45.785Z,5.72
2023-12-09T04:50:25.910Z,5.71
2023-12-09T04:51:05.722Z,5.74
2023-12-09T04:51:45.799Z,5.77
2023-12-09T04:52:26.886Z,5.67
2023-12-09T04:53:08.048Z,5.80
2023-12-09T04:53:47.776Z,5.78
2023-12-09T04:54:27.816Z,5.79
2023-12-09T04:55:07.699Z,5.66
2023-12-09T04:55:48.824Z,5.60
2023-12-09T04:56:29.696Z,5.68
2023-12-09T04:57:09.871Z,5.64
2023-12-09T04:57:49.687Z,5.70
2023-12-09T04:58:29.780Z,5.70
2023-12-09T04:59:10.719Z,5.57
2023-12-09T04:59:50.900Z,5.56
2023-12-09T05:00:31.712Z,5.52
2023-12-09T05:01:11.829Z,5.48
2023-12-09T05:01:52.695Z,5.52
2023-12-09T05:03:04.842Z,5.65
2023-12-09T05:03:44.793Z,5.54
2023-12-09T05:04:25.765Z,5.51
2023-12-09T05:04:59.776Z,5.52
2023-12-09T05:05:46.724Z,5.39
2023-12-09T05:06:21.517Z,5.48
2023-12-09T05:07:08.690Z,5.48
2023-12-09T05:07:43.392Z,5.41
2023-12-09T05:08:30.678Z,5.47
2023-12-09T05:09:05.209Z,5.48
2023-12-09T05:09:45.747Z,5.41
2023-12-09T05:10:25.791Z,5.46
2023-12-09T05:11:05.716Z,5.47
2023-12-09T05:11:45.749Z,5.48
2023-12-09T05:12:26.931Z,5.45
2023-12-09T05:13:07.895Z,5.50
2023-12-09T05:13:47.689Z,5.52
2023-12-09T05:14:27.822Z,5.47
2023-12-09T05:15:07.715Z,5.58
2023-12-09T05:15:47.880Z,5.63
2023-12-09T05:16:28.671Z,5.67
2023-12-09T05:17:08.820Z,5.67
2023-12-09T05:17:48.711Z,5.65
2023-12-09T05:18:28.961Z,5.68
2023-12-09T05:19:08.835Z,5.64
2023-12-09T05:19:48.837Z,5.66
2023-12-09T05:20:29.680Z,5.71
2023-12-09T05:21:11.775Z,5.59
2023-12-09T05:21:51.682Z,5.59
2023-12-09T05:22:32.763Z,5.59
2023-12-09T05:23:13.659Z,5.68
2023-12-09T05:23:53.757Z,5.66
2023-12-09T05:24:34.717Z,5.69
2023-12-09T05:25:15.940Z,5.73
2023-12-09T05:25:57.715Z,5.72
2023-12-09T05:26:37.748Z,5.58
2023-12-09T05:27:17.734Z,5.52
2023-12-09T05:27:57.773Z,5.42
2023-12-09T05:28:38.671Z,5.48
2023-12-09T05:29:18.770Z,5.42
2023-12-09T05:30:00.753Z,5.46
2023-12-09T05:30:40.767Z,5.51
2023-12-09T05:31:20.674Z,5.56
2023-12-09T05:32:00.734Z,5.58
2023-12-09T05:32:41.707Z,5.58
2023-12-09T05:33:21.862Z,5.57
2023-12-09T05:34:01.768Z,5.50
2023-12-09T05:34:41.885Z,5.46
2023-12-09T05:35:22.647Z,5.59
2023-12-09T05:36:02.823Z,5.52
2023-12-09T05:36:45.664Z,5.43
2023-12-09T05:37:25.791Z,5.50
2023-12-09T05:38:05.733Z,5.56
2023-12-09T05:38:45.804Z,5.64
2023-12-09T05:39:26.741Z,5.56
2023-12-09T05:40:07.951Z,5.60
2023-12-09T05:40:48.656Z,5.63
2023-12-09T05:41:28.802Z,5.64
2023-12-09T05:42:09.707Z,5.59
2023-12-09T05:42:49.765Z,5.58
2023-12-09T05:43:29.638Z,5.68
2023-12-09T05:44:09.736Z,5.52
2023-12-09T05:44:50.626Z,5.47
2023-12-09T05:45:30.873Z,5.44
2023-12-09T05:46:11.644Z,5.44
2023-12-09T05:46:51.782Z,5.33
2023-12-09T05:47:32.722Z,5.46
2023-12-09T05:48:12.908Z,5.49
2023-12-09T05:48:55.767Z,5.44
2023-12-09T05:49:35.845Z,5.51
2023-12-09T05:50:17.654Z,5.49
2023-12-09T05:50:57.768Z,5.51
2023-12-09T05:51:37.803Z,5.57
2023-12-09T05:52:17.760Z,5.48
2023-12-09T05:53:00.643Z,5.44
2023-12-09T05:53:42.849Z,5.56
2023-12-09T05:54:22.666Z,5.59
2023-12-09T05:55:02.800Z,5.52
2023-12-09T05:55:42.653Z,5.41
2023-12-09T05:56:22.741Z,5.55
2023-12-09T05:57:03.622Z,5.35
2023-12-09T05:57:44.405Z,5.49
2023-12-09T05:58:25.711Z,5.52
2023-12-09T05:59:05.791Z,5.39
2023-12-09T05:59:45.624Z,5.26
2023-12-09T06:00:25.760Z,5.52
2023-12-09T06:01:07.645Z,5.55
2023-12-09T06:01:47.716Z,5.57
2023-12-09T06:02:27.980Z,5.57
2023-12-09T06:03:09.292Z,5.65
2023-12-09T06:03:49.632Z,5.69
2023-12-09T06:04:29.813Z,5.70
2023-12-09T06:05:10.631Z,5.68
2023-12-09T06:05:50.797Z,5.70
2023-12-09T06:06:30.769Z,5.77
2023-12-09T06:07:10.989Z,5.49
2023-12-09T06:07:51.628Z,5.47
2023-12-09T06:08:32.747Z,5.48
2023-12-09T06:09:14.666Z,5.56
2023-12-09T06:09:54.731Z,5.50
2023-12-09T06:10:35.617Z,5.63
2023-12-09T06:11:15.766Z,5.55
2023-12-09T06:11:55.684Z,5.50
2023-12-09T06:12:36.138Z,5.25
2023-12-09T06:13:17.620Z,5.37
2023-12-09T06:13:57.794Z,5.42
2023-12-09T06:14:37.620Z,5.50
2023-12-09T06:15:17.766Z,5.47
2023-12-09T06:15:57.584Z,5.38
2023-12-09T06:16:37.688Z,5.49
2023-12-09T06:17:18.607Z,5.43
2023-12-09T06:17:58.956Z,5.48
2023-12-09T06:18:38.684Z,5.35
2023-12-09T06:19:18.948Z,5.26
2023-12-09T06:19:58.665Z,5.28
2023-12-09T06:20:38.704Z,5.36
2023-12-09T06:21:32.636Z,5.37
2023-12-09T06:22:12.719Z,5.42
2023-12-09T06:22:52.605Z,5.30
2023-12-09T06:23:32.943Z,5.30
2023-12-09T06:24:14.775Z,5.32
2023-12-09T06:24:57.343Z,5.27
2023-12-09T06:25:38.640Z,5.37
2023-12-09T06:26:18.800Z,5.49
2023-12-09T06:26:58.657Z,5.48
2023-12-09T06:27:38.823Z,5.32
2023-12-09T06:28:18.589Z,5.33
2023-12-09T06:28:58.726Z,5.32
2023-12-09T06:29:39.621Z,5.30
2023-12-09T06:30:20.884Z,5.33
2023-12-09T06:31:01.643Z,5.28
2023-12-09T06:31:41.713Z,5.37
2023-12-09T06:32:21.612Z,5.38
2023-12-09T06:33:02.017Z,5.46
2023-12-09T06:33:43.820Z,5.33
2023-12-09T06:34:24.805Z,5.40
2023-12-09T06:35:04.608Z,5.49
2023-12-09T06:35:44.720Z,5.52
2023-12-09T06:36:24.680Z,5.34
2023-12-09T06:37:04.727Z,5.51
2023-12-09T06:37:45.693Z,5.58
2023-12-09T06:38:26.914Z,5.48
2023-12-09T06:39:07.642Z,5.52
2023-12-09T06:39:47.728Z,5.47
2023-12-09T06:40:30.584Z,5.26
2023-12-09T06:41:10.773Z,5.38
2023-12-09T06:41:51.615Z,5.45
2023-12-09T06:42:32.004Z,5.49
2023-12-09T06:43:12.563Z,5.56
2023-12-09T06:43:52.679Z,5.59
2023-12-09T06:44:33.584Z,5.45
2023-12-09T06:45:14.739Z,5.42
2023-12-09T06:45:55.594Z,5.46
2023-12-09T06:46:35.684Z,5.55
2023-12-09T06:47:20.589Z,5.57
2023-12-09T06:48:00.868Z,5.54
2023-12-09T06:48:40.651Z,5.44
2023-12-09T06:49:20.806Z,5.62
2023-12-09T06:50:01.564Z,5.67
2023-12-09T06:50:41.751Z,5.68
2023-12-09T06:51:24.681Z,5.61
2023-12-09T06:52:04.798Z,5.72
2023-12-09T06:52:45.581Z,5.71
2023-12-09T06:53:25.699Z,5.67
2023-12-09T06:54:07.595Z,5.67
2023-12-09T06:54:47.787Z,5.57
2023-12-09T06:55:27.593Z,5.60
2023-12-09T06:56:09.979Z,5.60
2023-12-09T06:56:51.570Z,5.66
2023-12-09T06:57:32.822Z,5.64
2023-12-09T06:58:13.587Z,5.61
2023-12-09T06:58:53.935Z,5.66
2023-12-09T06:59:34.564Z,5.67
2023-12-09T07:00:15.888Z,5.71
2023-12-09T07:00:56.629Z,5.70
2023-12-09T07:01:36.713Z,5.78
2023-12-09T07:02:17.608Z,5.78
2023-12-09T07:02:59.917Z,5.68
2023-12-09T07:03:40.737Z,5.62
2023-12-09T07:04:20.731Z,5.58
2023-12-09T07:05:01.593Z,5.70
2023-12-09T07:05:41.743Z,5.71
2023-12-09T07:06:30.600Z,5.60
2023-12-09T07:07:18.281Z,5.44
2023-12-09T07:08:01.560Z,5.27
2023-12-09T07:08:48.591Z,5.39
2023-12-09T07:09:42.576Z,5.55
2023-12-09T07:10:36.560Z,5.50
2023-12-09T07:11:31.562Z,5.56
2023-12-09T07:12:25.884Z,5.71
2023-12-09T07:13:20.555Z,5.65
2023-12-09T07:14:07.572Z,5.52
2023-12-09T07:14:41.664Z,5.66
2023-12-09T07:15:28.573Z,5.68
2023-12-09T07:16:03.683Z,5.75
2023-12-09T07:16:50.554Z,5.76
2023-12-09T07:17:24.773Z,5.79
2023-12-09T07:18:12.791Z,5.74
2023-12-09T07:19:01.236Z,5.76
2023-12-09T07:19:41.779Z,5.83
2023-12-09T07:20:21.720Z,5.75
2023-12-09T07:21:02.552Z,5.69
2023-12-09T07:21:42.666Z,5.73
2023-12-09T07:22:22.531Z,5.83
2023-12-09T07:23:02.669Z,5.58
2023-12-09T07:23:43.567Z,5.57
2023-12-09T07:24:23.771Z,5.58
2023-12-09T07:25:04.577Z,5.73
2023-12-09T07:25:44.664Z,5.57
2023-12-09T07:26:26.570Z,5.56
2023-12-09T07:27:06.651Z,5.67
2023-12-09T07:27:46.509Z,5.74
2023-12-09T07:28:26.688Z,5.67
2023-12-09T07:29:11.514Z,5.60
2023-12-09T07:29:51.643Z,5.54
2023-12-09T07:30:31.543Z,5.56
2023-12-09T07:31:11.625Z,5.55
2023-12-09T07:31:51.529Z,5.49
2023-12-09T07:32:31.890Z,5.41
2023-12-09T07:33:13.620Z,5.40
2023-12-09T07:33:54.364Z,5.54
2023-12-09T07:34:34.612Z,5.45
2023-12-09T07:35:18.168Z,5.46
2023-12-09T07:35:58.565Z,5.60
2023-12-09T07:36:38.700Z,5.65
2023-12-09T07:37:22.517Z,5.56
2023-12-09T07:38:02.648Z,5.55
2023-12-09T07:38:42.538Z,5.58
2023-12-09T07:39:23.111Z,5.60
2023-12-09T07:40:03.533Z,5.44
2023-12-09T07:40:43.611Z,5.51
2023-12-09T07:41:24.543Z,5.55
2023-12-09T07:42:18.629Z,5.47
2023-12-09T07:43:12.520Z,5.40
2023-12-09T07:44:06.569Z,5.24
2023-12-09T07:45:00.639Z,5.42
2023-12-09T07:45:54.515Z,5.26
2023-12-09T07:46:41.524Z,5.34
2023-12-09T07:47:15.722Z,5.47
2023-12-09T07:48:02.647Z,5.49
2023-12-09T07:48:36.743Z,5.39
2023-12-09T07:49:23.619Z,5.41
2023-12-09T07:49:57.678Z,5.28
2023-12-09T07:50:44.534Z,5.24
2023-12-09T07:51:18.683Z,5.44
2023-12-09T07:52:05.531Z,5.50
2023-12-09T07:52:39.595Z,5.29
2023-12-09T07:53:26.508Z,5.43
2023-12-09T07:54:00.632Z,5.47
2023-12-09T07:54:47.528Z,5.54
2023-12-09T07:55:21.585Z,5.59
2023-12-09T07:56:08.573Z,5.32
2023-12-09T07:56:42.604Z,5.39
2023-12-09T07:57:29.551Z,5.21
2023-12-09T07:58:03.630Z,5.27
2023-12-09T07:58:51.504Z,5.31
2023-12-09T07:59:25.608Z,5.33
2023-12-09T08:00:15.511Z,5.33
2023-12-09T08:00:49.660Z,5.29
2023-12-09T08:01:36.570Z,5.38
2023-12-09T08:02:10.684Z,5.38
2023-12-09T08:02:51.520Z,5.43
2023-12-09T08:03:34.249Z,5.51
2023-12-09T08:04:14.671Z,5.46
2023-12-09T08:04:55.631Z,5.63
2023-12-09T08:05:35.579Z,5.50
2023-12-09T08:06:15.686Z,5.46
2023-12-09T08:06:55.524Z,5.49
2023-12-09T08:07:35.607Z,5.50
2023-12-09T08:08:16.552Z,5.54
2023-12-09T08:08:57.668Z,5.62
2023-12-09T08:09:37.574Z,5.68
2023-12-09T08:10:17.692Z,5.58
2023-12-09T08:10:58.547Z,5.62
2023-12-09T08:11:38.573Z,5.66
2023-12-09T08:12:20.550Z,5.66
2023-12-09T08:13:04.638Z,5.37
2023-12-09T08:13:46.507Z,5.37
2023-12-09T08:14:26.600Z,5.41
2023-12-09T08:15:06.539Z,5.43
2023-12-09T08:15:46.585Z,5.53
2023-12-09T08:16:27.476Z,5.59
2023-12-09T08:17:07.609Z,5.46
2023-12-09T08:17:48.561Z,5.49
2023-12-09T08:18:28.701Z,5.55
2023-12-09T08:19:08.600Z,5.47
2023-12-09T08:19:48.677Z,5.43
2023-12-09T08:20:29.484Z,5.37
2023-12-09T08:21:10.085Z,5.48
2023-12-09T08:21:51.479Z,5.47
2023-12-09T08:22:31.596Z,5.36
2023-12-09T08:23:11.484Z,5.50
2023-12-09T08:23:51.592Z,5.56
2023-12-09T08:24:32.541Z,5.65
2023-12-09T08:25:14.667Z,5.62
2023-12-09T08:25:55.499Z,5.49
2023-12-09T08:26:38.299Z,5.64
2023-12-09T08:27:18.510Z,5.48
2023-12-09T08:27:59.021Z,5.68
2023-12-09T08:28:41.490Z,5.59
2023-12-09T08:29:21.781Z,5.70
2023-12-09T08:30:01.507Z,5.70
2023-12-09T08:30:41.634Z,5.65
2023-12-09T08:31:21.465Z,5.77
2023-12-09T08:32:01.557Z,5.75
2023-12-09T08:32:42.529Z,5.78
2023-12-09T08:33:22.744Z,5.62
2023-12-09T08:34:03.574Z,5.80
2023-12-09T08:34:48.855Z,5.49
2023-12-09T08:35:33.687Z,5.42
2023-12-09T08:36:15.668Z,5.69
2023-12-09T08:36:56.479Z,5.55
2023-12-09T08:37:36.583Z,5.57
2023-12-09T08:38:16.445Z,5.39
2023-12-09T08:38:56.644Z,5.38
2023-12-09T08:39:38.553Z,5.47
2023-12-09T08:40:19.603Z,5.49
2023-12-09T08:41:01.488Z,5.58
2023-12-09T08:41:35.769Z,5.48
2023-12-09T08:42:22.482Z,5.53
2023-12-09T08:42:56.283Z,5.48
2023-12-09T08:43:43.441Z,5.43
2023-12-09T08:44:17.217Z,5.34
2023-12-09T08:45:05.513Z,5.46
2023-12-09T08:45:39.252Z,5.68
2023-12-09T08:46:26.472Z,5.66
2023-12-09T08:47:01.629Z,5.79
2023-12-09T08:47:48.579Z,5.82
2023-12-09T08:48:22.417Z,5.79
2023-12-09T08:49:10.590Z,5.74
2023-12-09T08:49:44.787Z,5.81
2023-12-09T08:50:31.474Z,5.78
2023-12-09T08:51:05.528Z,5.86
2023-12-09T08:51:55.445Z,5.73
2023-12-09T08:52:29.818Z,5.81
2023-12-09T08:53:04.602Z,5.70
2023-12-09T08:53:44.424Z,5.79
2023-12-09T08:54:18.735Z,5.88
2023-12-09T08:54:54.830Z,5.88
2023-12-09T08:55:36.453Z,5.78
2023-12-09T08:56:10.546Z,5.89
2023-12-09T08:56:45.264Z,5.80
2023-12-09T08:57:25.460Z,5.88
2023-12-09T08:57:59.587Z,5.83
2023-12-09T08:58:33.244Z,5.94
2023-12-09T08:59:15.419Z,5.85
2023-12-09T08:59:49.767Z,5.81
2023-12-09T09:00:27.434Z,5.83
2023-12-09T09:01:08.511Z,5.86
2023-12-09T09:01:43.639Z,5.90
2023-12-09T09:02:17.352Z,6.03
2023-12-09T09:02:58.523Z,5.81
2023-12-09T09:03:32.583Z,5.76
2023-12-09T09:04:07.471Z,5.70
2023-12-09T09:04:48.417Z,5.68
2023-12-09T09:05:23.338Z,5.77
2023-12-09T09:05:57.474Z,5.80
2023-12-09T09:06:38.449Z,5.72
2023-12-09T09:07:12.543Z,5.72
2023-12-09T09:07:47.227Z,5.92
2023-12-09T09:08:27.677Z,5.78
2023-12-09T09:09:01.575Z,5.85
2023-12-09T09:09:35.256Z,5.96
2023-12-09T09:10:16.473Z,5.94
2023-12-09T09:10:50.545Z,5.78
2023-12-09T09:11:25.300Z,5.77
2023-12-09T09:12:06.441Z,5.93
2023-12-09T09:12:40.579Z,6.03
2023-12-09T09:13:14.279Z,5.83
2023-12-09T09:13:54.450Z,5.91